Terminal Aerodrome Forecast
Issued by NWS Bismarck, ND

Home | Current Version | Previous Version | Text Only | Print | Product List | Glossary Off
Versions: 1 2 3 4 5 6 7 8 9 10 11 12 13 14 15 16 17 18 19 20 21 22 23 24

298
FTUS43 KBIS 181136
TAFBIS
TAF
KBIS 181136Z 1812/1912 06011KT P6SM OVC020
     FM181400 04011KT 3SM -SN OVC025
     FM181600 03011G19KT 5SM BR VCSH OVC020
     FM181800 01013G19KT P6SM BKN035
     FM190100 01010KT P6SM OVC035=

USA.gov is the U.S. government's official web portal to all federal, state and local government web resources and services.